Time;durP1;ratioP1;P1;durP2;ratioP2;P2;SDS_P1;SDS_P2;PMS_P1;PMS_P2;Temp;Humidity;BMP_temperature;BMP_pressure;BME280_temperature;BME280_humidity;BME280_pressure;Samples;Min_cycle;Max_cycle;Signal;HPM_P1;HPM_P2
2021/09/22 00:01:31;;;;;;;30.08;22.73;;;12.70;99.90;;;;;;4988349;28;20795;-80
2021/09/22 00:03:57;;;;;;;32.87;22.73;;;12.70;99.90;;;;;;4988994;28;20377;-80
2021/09/22 00:06:22;;;;;;;30.58;23.45;;;12.60;99.90;;;;;;4988566;28;20385;-81
2021/09/22 00:08:48;;;;;;;31.27;22.80;;;12.60;99.90;;;;;;4987600;28;20373;-81
2021/09/22 00:11:13;;;;;;;32.33;23.00;;;12.60;99.90;;;;;;4988448;28;20513;-82
2021/09/22 00:13:39;;;;;;;34.33;23.70;;;12.60;99.90;;;;;;4988513;28;20388;-81
2021/09/22 00:16:04;;;;;;;35.47;23.13;;;12.50;99.90;;;;;;4991268;28;20763;-81
2021/09/22 00:18:30;;;;;;;33.37;22.67;;;12.50;99.90;;;;;;4991860;28;20377;-80
2021/09/22 00:20:56;;;;;;;31.17;22.92;;;12.60;99.90;;;;;;4991886;28;20492;-80
2021/09/22 00:23:22;;;;;;;30.13;21.80;;;12.70;99.90;;;;;;4990837;28;20507;-78
2021/09/22 00:25:47;;;;;;;34.13;21.92;;;12.70;99.90;;;;;;4990606;28;20426;-82
2021/09/22 00:28:13;;;;;;;38.03;22.58;;;12.70;99.90;;;;;;4992049;28;20392;-80
2021/09/22 00:30:38;;;;;;;33.47;22.00;;;12.60;99.90;;;;;;4990793;28;20440;-81
2021/09/22 00:33:06;;;;;;;34.00;22.53;;;12.60;99.90;;;;;;4986991;28;21021;-79
2021/09/22 00:35:32;;;;;;;39.63;23.08;;;12.50;99.90;;;;;;4971215;28;20422;-79
2021/09/22 00:37:58;;;;;;;37.97;22.85;;;12.40;99.90;;;;;;4972360;28;20367;-83
2021/09/22 00:40:23;;;;;;;39.88;22.13;;;12.30;99.90;;;;;;4972422;28;20405;-83
2021/09/22 00:42:49;;;;;;;38.13;21.90;;;12.40;99.90;;;;;;4987351;28;20890;-82
2021/09/22 00:45:17;;;;;;;37.42;22.15;;;12.40;99.90;;;;;;4991771;28;20463;-85
2021/09/22 00:47:43;;;;;;;34.80;22.33;;;12.30;99.90;;;;;;4992120;28;21031;-82
2021/09/22 00:50:09;;;;;;;34.72;21.85;;;12.20;99.90;;;;;;4991719;28;20385;-82
2021/09/22 00:52:35;;;;;;;37.92;21.92;;;12.20;99.90;;;;;;4991409;28;20381;-81
2021/09/22 00:55:02;;;;;;;43.85;23.13;;;12.30;99.90;;;;;;4991559;28;20838;-79
2021/09/22 00:57:28;;;;;;;39.10;21.55;;;12.30;99.90;;;;;;4991424;28;20735;-79
2021/09/22 00:59:53;;;;;;;37.25;21.40;;;12.30;99.90;;;;;;4991526;28;20416;-80
2021/09/22 01:02:19;;;;;;;41.40;21.23;;;12.30;99.90;;;;;;4990597;28;20440;-81
2021/09/22 01:04:44;;;;;;;33.10;19.08;;;12.30;99.90;;;;;;4991801;28;20373;-76
2021/09/22 01:07:12;;;;;;;36.10;17.97;;;12.40;99.90;;;;;;4990951;28;20388;-79
2021/09/22 01:09:39;;;;;;;35.92;16.67;;;12.40;99.90;;;;;;4991190;28;20767;-78
2021/09/22 01:12:05;;;;;;;35.20;15.50;;;12.60;99.90;;;;;;4990972;28;20397;-79
2021/09/22 01:14:30;;;;;;;26.80;13.85;;;12.70;99.90;;;;;;4990780;28;20389;-79
2021/09/22 01:16:56;;;;;;;29.67;14.30;;;12.90;99.90;;;;;;4991256;28;20717;-82
2021/09/22 01:19:22;;;;;;;28.20;13.23;;;13.00;99.90;;;;;;4991067;28;20405;-78
2021/09/22 01:21:51;;;;;;;28.35;12.90;;;13.10;99.90;;;;;;4990786;28;20385;-77
2021/09/22 01:24:17;;;;;;;26.92;12.75;;;13.10;99.90;;;;;;4989362;28;20392;-80
2021/09/22 01:26:43;;;;;;;28.47;12.33;;;13.10;99.90;;;;;;4990620;28;20440;-82
2021/09/22 01:29:09;;;;;;;25.40;11.03;;;13.20;99.90;;;;;;4989510;28;20457;-79
2021/09/22 01:31:40;;;;;;;27.33;11.32;;;13.20;99.90;;;;;;4990424;28;20424;-81
2021/09/22 01:34:08;;;;;;;28.73;10.75;;;13.20;99.90;;;;;;4990863;28;20385;-83
2021/09/22 01:36:34;;;;;;;31.98;11.38;;;13.20;99.90;;;;;;4989941;28;20508;-79
2021/09/22 01:38:59;;;;;;;28.30;10.35;;;13.30;99.90;;;;;;4991117;28;20455;-82
2021/09/22 01:41:25;;;;;;;32.33;10.20;;;13.20;99.90;;;;;;4990606;28;20863;-78
2021/09/22 01:43:51;;;;;;;31.03;10.20;;;13.20;99.90;;;;;;4990800;28;20882;-80
2021/09/22 01:46:16;;;;;;;27.15;9.63;;;13.10;99.90;;;;;;4990895;28;20380;-81
2021/09/22 01:48:42;;;;;;;25.95;9.57;;;13.10;99.90;;;;;;4990410;28;20396;-78
2021/09/22 01:51:10;;;;;;;29.60;9.57;;;13.00;99.90;;;;;;4990471;28;20404;-76
2021/09/22 01:53:37;;;;;;;28.58;10.07;;;12.90;99.90;;;;;;4990693;28;20879;-80
2021/09/22 01:56:04;;;;;;;33.75;10.00;;;12.90;99.90;;;;;;4990555;28;20882;-80
2021/09/22 01:58:31;;;;;;;28.13;9.38;;;12.80;99.90;;;;;;4988775;28;20407;-79
2021/09/22 02:01:05;;;;;;;27.25;9.05;;;12.90;99.90;;;;;;4990278;28;20405;-77
2021/09/22 02:03:31;;;;;;;35.10;9.20;;;13.00;99.90;;;;;;4973113;28;20907;-81
2021/09/22 02:05:57;;;;;;;33.38;10.48;;;13.00;99.90;;;;;;4989887;28;20386;-80
2021/09/22 02:08:23;;;;;;;29.90;9.67;;;13.00;99.90;;;;;;4989118;28;20910;-82
2021/09/22 02:10:48;;;;;;;27.40;9.00;;;13.10;99.90;;;;;;4990613;28;20408;-80
2021/09/22 02:13:14;;;;;;;28.23;9.30;;;13.00;99.90;;;;;;4989050;28;20389;-78
2021/09/22 02:15:40;;;;;;;28.07;9.20;;;13.00;99.90;;;;;;4990174;28;20393;-84
2021/09/22 02:18:06;;;;;;;31.60;9.70;;;13.00;99.90;;;;;;4990033;28;20811;-82
2021/09/22 02:20:31;;;;;;;29.90;9.57;;;13.00;99.90;;;;;;4989760;28;20909;-81
2021/09/22 02:22:57;;;;;;;29.98;9.65;;;13.00;99.90;;;;;;4989799;28;20385;-81
2021/09/22 02:25:23;;;;;;;31.67;9.87;;;13.00;99.90;;;;;;4989582;28;20875;-78
2021/09/22 02:27:49;;;;;;;30.40;10.20;;;12.90;99.90;;;;;;4989859;28;20388;-78
2021/09/22 02:30:18;;;;;;;27.27;9.68;;;12.80;99.90;;;;;;4989486;28;20399;-80
2021/09/22 02:32:44;;;;;;;28.07;8.93;;;12.80;99.90;;;;;;4988277;28;20755;-81
2021/09/22 02:35:10;;;;;;;30.73;9.87;;;12.70;99.90;;;;;;4989501;28;20389;-80
2021/09/22 02:37:37;;;;;;;32.45;9.98;;;12.60;99.90;;;;;;4988024;28;20760;-80
2021/09/22 02:40:09;;;;;;;27.17;9.60;;;12.50;99.90;;;;;;4989877;28;20401;-79
2021/09/22 02:42:35;;;;;;;38.28;11.13;;;12.40;99.90;;;;;;4971869;28;20832;-79
2021/09/22 02:45:00;;;;;;;30.13;9.77;;;12.30;99.90;;;;;;4988136;28;20415;-78
2021/09/22 02:47:26;;;;;;;32.28;10.70;;;12.30;99.90;;;;;;4989609;28;20415;-82
2021/09/22 02:49:52;;;;;;;31.33;10.27;;;12.20;99.90;;;;;;4987760;28;20918;-80
2021/09/22 02:52:18;;;;;;;35.85;10.02;;;12.10;99.90;;;;;;4989367;28;20385;-82
2021/09/22 02:54:43;;;;;;;34.60;9.83;;;12.10;99.90;;;;;;4989275;28;20539;-79
2021/09/22 02:57:09;;;;;;;30.00;10.25;;;12.00;99.90;;;;;;4989577;28;20373;-82
2021/09/22 02:59:35;;;;;;;35.07;10.77;;;12.00;99.90;;;;;;4989224;28;20436;-83
2021/09/22 03:02:00;;;;;;;32.70;10.67;;;12.00;99.90;;;;;;4989403;28;20763;-80
2021/09/22 03:04:26;;;;;;;31.67;10.40;;;11.90;99.90;;;;;;4989303;28;21216;-79
2021/09/22 03:06:52;;;;;;;37.00;11.60;;;11.80;99.90;;;;;;4989306;28;20743;-80
2021/09/22 03:09:17;;;;;;;37.00;11.03;;;11.80;99.90;;;;;;4988789;28;20415;-78
2021/09/22 03:11:43;;;;;;;39.90;11.10;;;11.80;99.90;;;;;;4988190;28;20384;-80
2021/09/22 03:14:10;;;;;;;37.57;11.63;;;11.80;99.90;;;;;;4989270;28;20528;-79
2021/09/22 03:16:35;;;;;;;33.28;11.50;;;11.70;99.90;;;;;;4989415;28;20439;-78
2021/09/22 03:19:01;;;;;;;33.28;10.80;;;11.70;99.90;;;;;;4988616;28;20392;-81
2021/09/22 03:21:28;;;;;;;29.40;11.13;;;11.60;99.90;;;;;;4987908;28;20902;-81
2021/09/22 03:23:55;;;;;;;35.78;11.70;;;11.70;99.90;;;;;;4989092;28;20393;-79
2021/09/22 03:26:21;;;;;;;38.67;11.80;;;11.60;99.90;;;;;;4989278;28;20423;-82
2021/09/22 03:28:46;;;;;;;37.60;11.07;;;11.70;99.90;;;;;;4988727;28;20385;-79
2021/09/22 03:31:12;;;;;;;41.97;11.33;;;11.60;99.90;;;;;;4989409;28;20509;-78
2021/09/22 03:33:38;;;;;;;38.00;12.17;;;11.50;99.90;;;;;;4987558;28;20543;-82
2021/09/22 03:36:04;;;;;;;42.63;12.95;;;11.50;99.90;;;;;;4989027;28;20365;-83
2021/09/22 03:38:30;;;;;;;37.72;12.50;;;11.40;99.90;;;;;;4989059;28;20403;-82
2021/09/22 03:40:57;;;;;;;40.23;12.63;;;11.40;99.90;;;;;;4988927;28;20525;-80
2021/09/22 03:43:23;;;;;;;39.42;12.55;;;11.40;99.90;;;;;;4989396;28;20385;-82
2021/09/22 03:45:49;;;;;;;39.55;13.15;;;11.40;99.90;;;;;;4989026;28;20460;-82
2021/09/22 03:48:14;;;;;;;43.15;12.35;;;11.30;99.90;;;;;;4988507;28;20891;-78
2021/09/22 03:50:40;;;;;;;39.90;12.90;;;11.40;99.90;;;;;;4991673;28;20388;-79
2021/09/22 03:53:06;;;;;;;38.63;13.03;;;11.40;99.90;;;;;;4991552;28;20403;-82
2021/09/22 03:55:32;;;;;;;34.70;12.13;;;11.30;99.90;;;;;;4992777;28;20381;-79
2021/09/22 03:57:57;;;;;;;37.43;12.43;;;11.40;99.90;;;;;;4992584;28;20799;-79
2021/09/22 04:00:23;;;;;;;40.60;12.68;;;11.30;99.90;;;;;;4992802;28;20392;-83
2021/09/22 04:02:48;;;;;;;42.63;12.57;;;11.40;99.90;;;;;;4992308;28;20817;-78
2021/09/22 04:05:14;;;;;;;41.25;12.60;;;11.30;99.90;;;;;;4992673;28;20388;-82
2021/09/22 04:07:40;;;;;;;44.00;13.68;;;11.30;99.90;;;;;;4992448;28;20469;-80
2021/09/22 04:10:06;;;;;;;34.73;12.00;;;11.30;99.90;;;;;;4992243;28;20388;-79
2021/09/22 04:12:32;;;;;;;40.60;12.65;;;11.40;99.90;;;;;;4992385;28;20428;-81
2021/09/22 04:14:58;;;;;;;30.10;11.45;;;11.40;99.90;;;;;;4991977;28;20389;-81
2021/09/22 04:17:23;;;;;;;40.10;12.10;;;11.30;99.90;;;;;;4991614;28;20404;-80
2021/09/22 04:19:49;;;;;;;34.42;11.55;;;11.30;99.90;;;;;;4992490;28;20807;-78
2021/09/22 04:22:14;;;;;;;33.65;11.48;;;11.50;99.90;;;;;;4992268;28;20392;-83
2021/09/22 04:24:40;;;;;;;34.63;11.43;;;11.50;99.90;;;;;;4990972;28;20385;-76
2021/09/22 04:27:06;;;;;;;35.53;11.55;;;11.40;99.90;;;;;;4990737;28;21191;-80
2021/09/22 04:29:31;;;;;;;38.83;12.80;;;11.40;99.90;;;;;;4991264;28;20968;-80
2021/09/22 04:31:57;;;;;;;39.93;11.73;;;11.50;99.90;;;;;;4991937;28;20397;-83
2021/09/22 04:34:23;;;;;;;38.08;11.20;;;11.50;99.90;;;;;;4992077;28;20420;-84
2021/09/22 04:36:48;;;;;;;39.97;11.85;;;11.50;99.90;;;;;;4991599;28;20424;-82
2021/09/22 04:39:15;;;;;;;41.50;11.63;;;11.50;99.90;;;;;;4991988;28;20443;-78
2021/09/22 04:41:40;;;;;;;33.80;11.32;;;11.50;99.90;;;;;;4990773;28;20392;-84
2021/09/22 04:44:06;;;;;;;38.60;11.02;;;11.60;99.90;;;;;;4991980;28;20377;-78
2021/09/22 04:46:32;;;;;;;35.00;10.80;;;11.60;99.90;;;;;;4991025;28;20428;-81
2021/09/22 04:48:58;;;;;;;35.42;10.45;;;11.60;99.90;;;;;;4991134;28;20393;-80
2021/09/22 04:51:23;;;;;;;40.05;12.48;;;11.70;99.90;;;;;;4991445;28;20754;-84
2021/09/22 04:53:49;;;;;;;37.30;10.57;;;11.60;99.90;;;;;;4989982;28;20389;-81
2021/09/22 04:56:15;;;;;;;39.43;11.77;;;11.60;99.90;;;;;;4991066;28;20483;-79
2021/09/22 04:58:42;;;;;;;38.92;10.55;;;11.60;99.90;;;;;;4988149;28;20386;-81
2021/09/22 05:01:08;;;;;;;31.75;10.27;;;11.70;99.90;;;;;;4984025;28;20418;-79
2021/09/22 05:03:33;;;;;;;41.47;11.10;;;11.70;99.90;;;;;;4983306;28;20459;-83
2021/09/22 05:05:59;;;;;;;35.15;10.15;;;11.70;99.90;;;;;;4981731;28;20404;-81
2021/09/22 05:08:25;;;;;;;32.72;10.50;;;11.60;99.90;;;;;;4964403;28;20381;-78
2021/09/22 05:10:51;;;;;;;33.67;10.40;;;11.70;99.90;;;;;;4980718;28;20387;-77
2021/09/22 05:13:17;;;;;;;33.83;9.70;;;11.80;99.90;;;;;;4980527;28;20385;-81
2021/09/22 05:15:44;;;;;;;36.77;10.00;;;11.80;99.90;;;;;;4984477;28;20547;-81
2021/09/22 05:18:10;;;;;;;40.45;11.10;;;11.70;99.90;;;;;;4967925;28;20387;-78
2021/09/22 05:20:36;;;;;;;32.10;10.05;;;11.80;99.90;;;;;;4981512;28;20407;-80
2021/09/22 05:23:01;;;;;;;29.17;9.67;;;11.80;99.90;;;;;;4981967;28;20387;-82
2021/09/22 05:25:27;;;;;;;35.47;10.02;;;11.80;99.90;;;;;;4985105;28;20473;-79
2021/09/22 05:27:53;;;;;;;35.65;10.02;;;11.90;99.90;;;;;;4980774;28;20396;-84
2021/09/22 05:30:19;;;;;;;41.28;10.77;;;11.80;99.90;;;;;;4985876;28;20783;-82
2021/09/22 05:32:45;;;;;;;40.05;10.57;;;11.80;99.90;;;;;;4983730;28;20898;-78
2021/09/22 05:35:10;;;;;;;36.80;9.60;;;11.90;99.90;;;;;;4983319;28;20385;-79
2021/09/22 05:37:36;;;;;;;31.73;10.20;;;12.00;99.90;;;;;;4983413;28;20484;-82
2021/09/22 05:40:03;;;;;;;33.72;9.80;;;12.00;99.90;;;;;;4980966;28;20437;-78
2021/09/22 05:42:29;;;;;;;35.67;9.35;;;12.00;99.90;;;;;;4961428;28;20386;-79
2021/09/22 05:44:54;;;;;;;35.63;9.60;;;12.10;99.90;;;;;;4961722;28;20385;-80
2021/09/22 05:47:20;;;;;;;31.20;9.27;;;12.10;99.90;;;;;;4980807;28;20516;-82
2021/09/22 05:49:46;;;;;;;27.70;8.68;;;12.30;99.90;;;;;;4979093;28;20422;-83
2021/09/22 05:52:11;;;;;;;35.47;9.43;;;12.40;99.90;;;;;;4996483;28;20435;-81
2021/09/22 05:54:37;;;;;;;34.23;8.83;;;12.40;99.90;;;;;;4996598;28;20826;-77
2021/09/22 05:57:03;;;;;;;30.75;9.00;;;12.50;99.90;;;;;;4961076;28;20749;-77
2021/09/22 05:59:29;;;;;;;36.97;9.45;;;12.50;99.90;;;;;;4978243;28;21113;-82
2021/09/22 06:01:56;;;;;;;32.60;9.20;;;12.50;99.90;;;;;;4978953;28;20531;-79
2021/09/22 06:04:22;;;;;;;30.77;8.55;;;12.60;99.90;;;;;;4976916;28;20943;-78
2021/09/22 06:06:47;;;;;;;33.70;8.63;;;12.60;99.90;;;;;;4978267;28;20408;-77
2021/09/22 06:09:13;;;;;;;36.10;9.50;;;12.60;99.90;;;;;;4978054;28;20387;-80
2021/09/22 06:11:39;;;;;;;28.42;8.02;;;12.50;99.90;;;;;;4976790;28;20480;-81
2021/09/22 06:14:05;;;;;;;28.00;8.03;;;12.50;99.90;;;;;;4978058;28;20424;-80
2021/09/22 06:16:30;;;;;;;30.97;8.30;;;12.60;99.90;;;;;;4978003;28;20477;-80
2021/09/22 06:18:57;;;;;;;32.23;8.37;;;12.70;99.90;;;;;;4978732;28;20377;-78
2021/09/22 06:21:23;;;;;;;31.55;8.50;;;12.80;99.90;;;;;;4963027;28;20381;-76
2021/09/22 06:23:53;;;;;;;30.88;8.40;;;12.80;99.90;;;;;;4978711;28;20438;-81
2021/09/22 06:26:20;;;;;;;30.20;7.97;;;12.90;99.90;;;;;;4980533;28;20411;-77
2021/09/22 06:28:46;;;;;;;29.38;8.15;;;12.80;99.90;;;;;;4984790;28;20381;-79
2021/09/22 06:31:11;;;;;;;30.50;8.30;;;12.90;99.90;;;;;;4981681;28;20484;-79
2021/09/22 06:33:37;;;;;;;32.27;8.30;;;13.00;99.90;;;;;;4982859;28;20410;-78
2021/09/22 06:36:03;;;;;;;28.27;7.70;;;13.10;99.90;;;;;;4984052;28;20377;-81
2021/09/22 06:38:29;;;;;;;29.17;7.90;;;13.10;99.90;;;;;;4967871;28;20755;-79
2021/09/22 06:40:55;;;;;;;35.33;8.60;;;13.00;99.90;;;;;;4985294;28;20412;-80
2021/09/22 06:43:21;;;;;;;28.20;8.10;;;13.10;99.90;;;;;;4977065;28;20899;-84
2021/09/22 06:45:47;;;;;;;24.08;7.43;;;13.00;99.90;;;;;;4982048;28;20395;-82
2021/09/22 06:48:12;;;;;;;27.60;7.43;;;13.10;99.90;;;;;;4979455;28;20913;-81
2021/09/22 06:50:38;;;;;;;27.45;7.88;;;13.20;99.90;;;;;;4977483;28;20457;-85
2021/09/22 06:53:04;;;;;;;30.97;8.47;;;13.20;99.90;;;;;;4984848;28;20396;-83
2021/09/22 06:55:30;;;;;;;24.20;7.63;;;13.20;99.90;;;;;;4977019;28;20411;-80
2021/09/22 06:57:55;;;;;;;25.50;7.57;;;13.30;99.90;;;;;;4978684;28;20850;-82
2021/09/22 07:00:21;;;;;;;25.05;6.65;;;13.30;99.90;;;;;;4982544;28;20772;-80
2021/09/22 07:02:47;;;;;;;27.52;7.30;;;13.40;99.90;;;;;;4975074;28;20402;-79
2021/09/22 07:05:14;;;;;;;23.50;6.47;;;13.50;99.90;;;;;;4975459;28;20395;-80
2021/09/22 07:07:40;;;;;;;25.05;7.45;;;13.60;99.90;;;;;;4977775;28;20890;-83
2021/09/22 07:10:07;;;;;;;29.38;7.72;;;13.80;99.90;;;;;;4986454;28;20377;-80
2021/09/22 07:12:33;;;;;;;26.40;7.28;;;13.80;99.90;;;;;;4982102;28;20970;-80
2021/09/22 07:14:59;;;;;;;27.27;7.10;;;13.80;99.90;;;;;;4960998;28;20478;-79
2021/09/22 07:17:25;;;;;;;25.30;7.25;;;13.80;99.90;;;;;;4978136;28;20381;-82
2021/09/22 07:19:51;;;;;;;29.10;7.03;;;13.80;99.90;;;;;;4979309;28;20965;-78
2021/09/22 07:22:17;;;;;;;25.87;7.33;;;13.80;99.90;;;;;;4978320;28;20826;-79
2021/09/22 07:24:42;;;;;;;23.93;7.10;;;13.90;99.90;;;;;;4980815;28;20388;-85
2021/09/22 07:27:09;;;;;;;29.00;7.47;;;13.90;99.90;;;;;;4965821;28;20503;-83
2021/09/22 07:29:35;;;;;;;29.88;7.55;;;13.90;99.90;;;;;;4981832;28;20440;-83
2021/09/22 07:32:01;;;;;;;29.98;7.35;;;13.90;99.90;;;;;;4983245;28;20394;-87
2021/09/22 07:34:27;;;;;;;27.63;7.47;;;13.90;99.90;;;;;;4986297;28;20404;-81
2021/09/22 07:36:53;;;;;;;24.70;6.38;;;13.80;99.90;;;;;;4983560;28;20815;-83
2021/09/22 07:39:19;;;;;;;25.65;7.50;;;13.90;99.90;;;;;;4982928;28;20401;-86
2021/09/22 07:41:45;;;;;;;22.93;6.77;;;14.00;99.90;;;;;;4969423;28;20996;-83
2021/09/22 07:44:11;;;;;;;24.50;6.93;;;14.10;99.90;;;;;;4985779;28;20392;-79
2021/09/22 07:46:37;;;;;;;23.77;6.45;;;14.10;99.90;;;;;;4982276;28;20461;-81
2021/09/22 07:49:02;;;;;;;26.75;7.20;;;14.30;99.90;;;;;;4982699;28;20806;-83
2021/09/22 07:51:28;;;;;;;22.75;6.60;;;14.50;99.90;;;;;;4984718;28;20388;-80
2021/09/22 07:53:54;;;;;;;26.23;7.17;;;14.70;99.90;;;;;;4981792;28;20861;-78
2021/09/22 07:56:19;;;;;;;23.98;6.53;;;14.70;99.90;;;;;;4985482;28;20401;-82
2021/09/22 07:58:46;;;;;;;25.07;7.23;;;14.70;99.90;;;;;;4984305;28;20395;-81
2021/09/22 08:01:12;;;;;;;24.95;6.57;;;14.70;99.90;;;;;;4967706;28;20424;-81
2021/09/22 08:03:39;;;;;;;27.23;7.38;;;14.70;99.90;;;;;;4964459;28;20915;-82
2021/09/22 08:06:05;;;;;;;30.27;11.18;;;14.70;99.90;;;;;;4983795;28;20463;-82
2021/09/22 08:08:31;;;;;;;51.78;30.67;;;14.80;99.90;;;;;;4982423;28;20377;-83
2021/09/22 08:10:56;;;;;;;38.07;20.30;;;14.90;99.90;;;;;;4980825;28;20538;-82
2021/09/22 08:13:23;;;;;;;98.27;71.30;;;15.00;99.90;;;;;;4983521;28;20402;-80
2021/09/22 08:15:48;;;;;;;26.40;10.98;;;15.20;99.90;;;;;;4996729;28;20750;-82
2021/09/22 08:18:14;;;;;;;30.10;9.63;;;15.40;99.90;;;;;;4980938;28;20931;-80
2021/09/22 08:20:40;;;;;;;24.70;7.90;;;15.30;99.90;;;;;;4981539;28;20409;-82
2021/09/22 08:23:06;;;;;;;29.02;7.45;;;15.10;99.90;;;;;;4966667;28;20973;-81
2021/09/22 08:25:32;;;;;;;25.02;6.78;;;15.30;99.90;;;;;;4984907;28;20420;-83
2021/09/22 08:27:57;;;;;;;22.07;8.87;;;15.50;99.90;;;;;;4984591;28;20389;-83
2021/09/22 08:30:23;;;;;;;29.65;10.40;;;15.80;99.90;;;;;;4983171;28;20389;-80
2021/09/22 08:32:49;;;;;;;23.35;7.03;;;15.90;99.90;;;;;;4983436;28;20777;-84
2021/09/22 08:35:14;;;;;;;23.40;8.57;;;15.90;99.90;;;;;;4980124;28;20451;-82
2021/09/22 08:37:40;;;;;;;31.40;7.78;;;16.20;99.90;;;;;;4981544;28;20815;-79
2021/09/22 08:40:07;;;;;;;24.80;6.90;;;16.10;99.90;;;;;;4980184;28;20421;-79
2021/09/22 08:42:33;;;;;;;23.10;6.63;;;16.40;99.90;;;;;;4987192;28;20388;-80
2021/09/22 08:44:59;;;;;;;24.88;7.22;;;16.60;99.90;;;;;;4982129;28;20409;-80
2021/09/22 08:47:25;;;;;;;24.55;7.65;;;16.40;99.90;;;;;;4983360;28;20421;-81
2021/09/22 08:49:51;;;;;;;24.02;8.35;;;16.30;99.90;;;;;;4980382;28;20866;-78
2021/09/22 08:52:18;;;;;;;28.38;8.02;;;16.20;99.90;;;;;;4983539;28;20385;-78
2021/09/22 08:54:44;;;;;;;27.10;8.13;;;16.20;99.90;;;;;;4980442;28;20385;-82
2021/09/22 08:57:10;;;;;;;28.40;8.98;;;16.10;99.90;;;;;;4966657;28;20467;-83
2021/09/22 08:59:35;;;;;;;26.63;10.80;;;16.30;99.90;;;;;;4987586;28;20904;-85
2021/09/22 09:02:16;;;;;;;26.63;7.47;;;16.20;99.90;;;;;;4983579;28;20392;-79
2021/09/22 09:04:44;;;;;;;25.90;8.00;;;16.30;99.90;;;;;;4982987;28;20891;-79
2021/09/22 09:07:10;;;;;;;26.60;8.23;;;16.30;99.90;;;;;;4981538;28;20515;-80
2021/09/22 09:09:42;;;;;;;25.92;7.93;;;16.50;99.90;;;;;;4980242;28;20481;-82
2021/09/22 09:12:20;;;;;;;24.47;7.73;;;16.60;99.90;;;;;;4980067;28;20377;-82
2021/09/22 09:14:54;;;;;;;25.80;7.30;;;16.70;99.90;;;;;;4981912;28;20439;-82
2021/09/22 09:17:40;;;;;;;23.80;7.00;;;16.50;99.90;;;;;;4983537;28;20385;-81
2021/09/22 09:20:23;;;;;;;21.70;7.33;;;16.50;99.90;;;;;;4980407;28;20419;-78
2021/09/22 09:23:12;;;;;;;27.33;7.25;;;16.60;99.90;;;;;;4980128;28;20389;-80
2021/09/22 09:26:02;;;;;;;23.30;6.47;;;16.70;99.90;;;;;;4971172;28;20469;-86
2021/09/22 09:28:35;;;;;;;20.17;6.72;;;17.10;99.90;;;;;;4980690;28;20400;-84
2021/09/22 09:31:05;;;;;;;23.38;7.07;;;17.50;99.90;;;;;;4983695;28;20386;-78
2021/09/22 09:33:41;;;;;;;28.63;8.15;;;17.60;99.90;;;;;;4980765;28;20786;-85
2021/09/22 09:36:34;;;;;;;23.10;6.38;;;17.40;99.90;;;;;;4984650;28;20748;-83
2021/09/22 09:39:11;;;;;;;21.23;5.65;;;17.50;99.90;;;;;;4982850;28;20424;-84
2021/09/22 09:41:42;;;;;;;22.38;5.93;;;17.50;99.90;;;;;;4987487;28;20424;-81
2021/09/22 09:44:11;;;;;;;29.40;7.00;;;17.50;99.90;;;;;;4980014;28;20785;-81
2021/09/22 09:46:38;;;;;;;22.92;6.97;;;17.30;99.90;;;;;;4981293;28;21103;-81
2021/09/22 09:49:13;;;;;;;28.48;7.13;;;17.30;99.90;;;;;;4984641;28;20394;-79
2021/09/22 09:51:48;;;;;;;23.50;7.03;;;17.30;99.90;;;;;;4988498;28;20397;-80
2021/09/22 09:54:18;;;;;;;23.95;6.32;;;17.60;99.90;;;;;;4967109;28;20415;-80
2021/09/22 09:56:45;;;;;;;20.55;5.93;;;17.80;99.90;;;;;;4981832;28;20412;-80
2021/09/22 09:59:15;;;;;;;25.87;6.93;;;18.00;99.90;;;;;;4971652;28;20476;-81
2021/09/22 10:01:44;;;;;;;26.35;7.00;;;17.70;99.90;;;;;;4962935;28;20397;-80
2021/09/22 10:04:13;;;;;;;28.20;6.93;;;17.50;99.90;;;;;;4964187;28;20393;-81
2021/09/22 10:06:39;;;;;;;22.02;6.57;;;17.40;99.90;;;;;;4981225;28;20426;-83
2021/09/22 10:09:06;;;;;;;26.08;6.57;;;17.40;99.90;;;;;;4965953;28;20396;-82
2021/09/22 10:11:33;;;;;;;23.25;6.30;;;17.40;99.90;;;;;;4982936;28;20392;-79
2021/09/22 10:13:59;;;;;;;23.52;6.75;;;17.40;99.90;;;;;;4962173;28;20589;-82
2021/09/22 10:16:27;;;;;;;21.08;6.13;;;17.40;99.90;;;;;;4961914;28;20796;-79
2021/09/22 10:18:54;;;;;;;26.10;7.73;;;17.20;99.90;;;;;;4961012;28;20390;-86
2021/09/22 10:21:20;;;;;;;28.33;7.15;;;17.10;99.90;;;;;;4964072;28;20410;-81
2021/09/22 10:23:49;;;;;;;19.27;5.70;;;17.10;99.90;;;;;;4978792;28;20468;-81
2021/09/22 10:26:15;;;;;;;27.23;7.15;;;17.30;99.90;;;;;;4984846;28;20381;-80
2021/09/22 10:28:45;;;;;;;22.95;6.30;;;17.40;99.90;;;;;;4982942;28;20521;-83
2021/09/22 10:31:23;;;;;;;22.95;6.55;;;17.50;99.90;;;;;;4981536;28;20483;-85
2021/09/22 10:33:48;;;;;;;23.33;6.25;;;17.80;99.90;;;;;;4980323;28;20384;-81
2021/09/22 10:36:15;;;;;;;26.23;6.63;;;17.70;99.90;;;;;;4993586;28;20400;-83
2021/09/22 10:38:48;;;;;;;25.27;6.43;;;17.70;99.90;;;;;;4961164;28;20387;-79
2021/09/22 10:41:28;;;;;;;24.20;6.20;;;17.60;99.90;;;;;;4979548;28;20408;-84
2021/09/22 10:43:54;;;;;;;23.58;6.18;;;17.70;99.90;;;;;;4965338;28;20431;-80
2021/09/22 10:46:22;;;;;;;25.48;6.20;;;18.10;99.90;;;;;;4984032;28;20915;-81
2021/09/22 10:48:51;;;;;;;22.00;5.70;;;18.30;99.90;;;;;;4992408;28;20384;-83
2021/09/22 10:51:31;;;;;;;22.85;6.05;;;18.40;99.90;;;;;;4988436;28;20388;-82
2021/09/22 10:54:10;;;;;;;21.87;6.20;;;18.60;99.90;;;;;;4978084;28;20384;-81
2021/09/22 10:56:49;;;;;;;22.38;6.43;;;19.00;99.90;;;;;;4984304;28;20401;-80
2021/09/22 10:59:35;;;;;;;21.10;5.85;;;19.30;99.90;;;;;;4986513;28;20393;-80
2021/09/22 11:02:02;;;;;;;20.47;5.93;;;19.10;99.90;;;;;;4971296;28;20400;-81
2021/09/22 11:04:58;;;;;;;58.53;41.15;;;19.40;99.90;;;;;;4990778;28;20413;-81
2021/09/22 11:07:48;;;;;;;48.08;32.65;;;19.30;99.90;;;;;;4987531;28;20405;-81
2021/09/22 11:10:53;;;;;;;26.50;12.32;;;19.20;99.90;;;;;;4960675;28;20387;-80
2021/09/22 11:13:19;;;;;;;23.77;7.28;;;19.10;99.90;;;;;;4985762;28;20401;-83
2021/09/22 11:15:47;;;;;;;20.27;5.60;;;19.10;99.90;;;;;;4985560;28;20402;-82
2021/09/22 11:18:15;;;;;;;21.58;5.75;;;19.10;99.90;;;;;;4988917;28;20444;-84
2021/09/22 11:20:41;;;;;;;20.52;6.03;;;19.20;99.90;;;;;;4975505;28;20443;-80
2021/09/22 11:23:08;;;;;;;16.80;5.13;;;19.20;99.90;;;;;;4984846;28;20389;-84
2021/09/22 11:25:34;;;;;;;17.20;5.38;;;19.40;99.90;;;;;;4985929;28;20433;-82
2021/09/22 11:28:07;;;;;;;23.50;6.65;;;19.50;99.90;;;;;;4987151;28;20381;-84
2021/09/22 11:30:33;;;;;;;22.35;6.07;;;19.70;99.90;;;;;;4984676;28;20399;-82
2021/09/22 11:32:59;;;;;;;20.42;5.53;;;19.80;99.90;;;;;;4983828;28;20796;-81
2021/09/22 11:35:29;;;;;;;21.17;5.37;;;19.70;99.90;;;;;;4991597;28;20472;-82
2021/09/22 11:37:57;;;;;;;18.92;5.55;;;19.50;99.90;;;;;;4968860;28;20387;-80
2021/09/22 11:40:33;;;;;;;21.92;5.43;;;19.30;99.90;;;;;;4969632;28;20409;-82
2021/09/22 11:43:05;;;;;;;20.10;5.07;;;19.30;99.90;;;;;;4985543;28;20409;-83
2021/09/22 11:45:45;;;;;;;23.00;5.90;;;19.50;99.90;;;;;;4984009;28;20938;-81
2021/09/22 11:48:13;;;;;;;19.17;5.80;;;19.90;99.90;;;;;;4986213;28;20397;-82
2021/09/22 11:50:42;;;;;;;17.42;6.18;;;20.00;99.90;;;;;;4986110;28;20397;-81
2021/09/22 11:53:09;;;;;;;18.65;5.60;;;19.90;99.90;;;;;;4987138;28;20502;-81
2021/09/22 11:55:36;;;;;;;20.38;5.72;;;19.70;99.90;;;;;;4978198;28;20396;-83
2021/09/22 11:58:09;;;;;;;19.70;6.67;;;19.60;99.90;;;;;;4986857;28;20393;-80
2021/09/22 12:00:36;;;;;;;27.05;7.78;;;19.50;99.90;;;;;;4970898;28;20444;-82
2021/09/22 12:03:10;;;;;;;22.30;10.07;;;19.30;99.90;;;;;;4979305;28;20432;-83
2021/09/22 12:05:37;;;;;;;16.80;5.40;;;19.20;99.90;;;;;;4973538;28;20399;-83
2021/09/22 12:08:03;;;;;;;21.63;5.88;;;19.10;99.90;;;;;;4963231;28;20402;-79
2021/09/22 12:10:29;;;;;;;19.08;5.70;;;18.90;99.90;;;;;;4984496;28;20385;-83
2021/09/22 12:13:05;;;;;;;18.47;6.80;;;18.90;99.90;;;;;;4984416;28;20397;-82
2021/09/22 12:15:33;;;;;;;15.77;4.95;;;19.20;99.90;;;;;;4982709;28;20397;-83
2021/09/22 12:17:59;;;;;;;20.27;5.07;;;19.40;99.90;;;;;;4986667;28;20409;-82
2021/09/22 12:20:27;;;;;;;17.92;6.20;;;19.60;99.90;;;;;;4982420;28;20912;-82
2021/09/22 12:23:18;;;;;;;15.10;4.78;;;19.70;99.90;;;;;;4966512;28;21042;-83
2021/09/22 12:25:43;;;;;;;15.55;4.32;;;19.70;99.90;;;;;;4981203;28;20471;-81
2021/09/22 12:28:17;;;;;;;16.87;5.23;;;19.80;99.90;;;;;;4985735;28;20567;-79
2021/09/22 12:30:42;;;;;;;17.83;5.35;;;19.60;99.90;;;;;;4983811;28;20484;-87
2021/09/22 12:33:09;;;;;;;19.23;6.43;;;19.40;99.90;;;;;;4991425;28;20476;-83
2021/09/22 12:35:37;;;;;;;17.70;6.28;;;19.20;99.90;;;;;;4991648;28;20913;-83